CheckWX is a tool to help pilots better visualize weather data.  It is not intended as a substitute for an official pre-flight weather briefing.

12:14:50 UTC

KCSV METAR
Crossville Memorial-Whitson Field Airport
Crossville, Tennessee, USA
Current

22 mins ago

KCSV 261153Z AUTO 28013KT 10SM BKN014 BKN022 OVC036 13/11 A2977 RMK AO2 SLP069 60017 70033 T01280111 10139 20128 53024
Observed
Apr-26 @ 11:53 UTC
Wind
  • 280° at 13 KTS
Visibility
10 SM
Flight Rules
MVFR
Cloud Levels
  • Broken at 1,400' AGL
  • Broken at 2,200' AGL
  • Overcast at 3,600' AGL
Temperature
13°C / 55°F
Dewpoint
11°C / 52°F
Humidity
88%
Altimeter
29.77" Hg
Pressure
1008.12 hPa
24 Hour Rain
0.33"
Previous

44 mins ago

KCSV 261131Z AUTO 29011G18KT 10SM SCT012 BKN018 OVC050 13/11 A2976 RMK AO2 T01280111
Observed
Apr-26 @ 11:31 UTC
Wind
  • 290° at 11 KTS
  • Gusting to 18 KTS
Visibility
10 SM
Flight Rules
MVFR
Cloud Levels
  • Scattered at 1,200' AGL
  • Broken at 1,800' AGL
  • Overcast at 5,000' AGL
Temperature
13°C / 55°F
Dewpoint
11°C / 52°F
Humidity
88%
Altimeter
29.76" Hg
Pressure
1007.82 hPa
Previous

1 hour ago

KCSV 261106Z AUTO 28013G20KT 10SM FEW008 BKN012 OVC042 13/11 A2975 RMK AO2 T01280111
Observed
Apr-26 @ 11:06 UTC
Wind
  • 280° at 13 KTS
  • Gusting to 20 KTS
Visibility
10 SM
Flight Rules
MVFR
Cloud Levels
  • Few at 800' AGL
  • Broken at 1,200' AGL
  • Overcast at 4,200' AGL
Temperature
13°C / 55°F
Dewpoint
11°C / 52°F
Humidity
88%
Altimeter
29.75" Hg
Pressure
1007.42 hPa